Terminal Aerodrome Forecast
Issued by NWS Jacksonville, FL

Home | Current Version | Previous Version | Text Only | Print | Product List | Glossary On
Versions: 1 2 3 4 5 6 7 8 9 10 11 12 13 14 15 16 17 18 19 20 21 22 23 24 25 26 27
000
FTUS42 KJAX 200700 AAA
TAFSSI
TAF AMD
KSSI 200727Z 2007/2106 05007KT P6SM VCSH SCT025 BKN035
      TEMPO 2007/2010 VRB10G20KT 3SM -TSRA BKN025CB
     FM201000 05008KT P6SM -SHRA OVC020
     FM201700 05011KT P6SM -SHRA OVC025=

USA.gov is the U.S. government's official web portal to all federal, state and local government web resources and services.